Time;durP1;ratioP1;P1;durP2;ratioP2;P2;SDS_P1;SDS_P2;PMS_P1;PMS_P2;Temp;Humidity;BMP_temperature;BMP_pressure;BME280_temperature;BME280_humidity;BME280_pressure;Samples;Min_cycle;Max_cycle;Signal;HPM_P1;HPM_P2
2023/09/25 00:00:34;;;;;;;6.78;5.68;;;;;;;14.15;100.00;101570.69;5076288;28;20025;-83
2023/09/25 00:03:06;;;;;;;7.20;4.85;;;;;;;14.14;100.00;101564.16;5075244;28;20040;-82
2023/09/25 00:05:31;;;;;;;8.75;5.53;;;;;;;14.16;100.00;101567.34;5073855;28;20036;-82
2023/09/25 00:07:57;;;;;;;7.05;5.40;;;;;;;14.18;100.00;101564.00;5076101;28;20052;-82
2023/09/25 00:10:25;;;;;;;10.27;4.97;;;;;;;14.18;100.00;101564.00;5075440;28;20025;-82
2023/09/25 00:13:09;;;;;;;7.82;5.63;;;;;;;14.17;100.00;101563.19;5075288;28;20032;-82
2023/09/25 00:15:34;;;;;;;9.32;5.68;;;;;;;14.15;100.00;101560.00;5076258;28;20021;-83
2023/09/25 00:18:00;;;;;;;8.05;5.20;;;;;;;14.17;100.00;101571.03;5075335;28;20047;-83
2023/09/25 00:20:28;;;;;;;6.90;5.88;;;;;;;14.19;100.00;101562.69;5075431;28;20150;-85
2023/09/25 00:22:56;;;;;;;7.93;5.22;;;;;;;14.19;100.00;101565.56;5075544;28;20054;-84
2023/09/25 00:25:23;;;;;;;9.25;6.10;;;;;;;14.15;100.00;101559.19;5075264;28;20025;-83
2023/09/25 00:27:49;;;;;;;7.15;5.45;;;;;;;14.19;100.00;101566.34;5074027;28;20044;-83
2023/09/25 00:30:15;;;;;;;6.30;5.57;;;;;;;14.17;100.00;101559.53;5075310;28;20017;-84
2023/09/25 00:32:41;;;;;;;6.53;5.50;;;;;;;14.18;100.00;101561.13;5075345;28;20056;-82
2023/09/25 00:35:10;;;;;;;6.72;5.40;;;;;;;14.13;100.00;101553.97;5074755;28;20027;-83
2023/09/25 00:37:58;;;;;;;7.30;5.43;;;;;;;14.16;100.00;101547.22;5073064;28;20045;-82
2023/09/25 00:40:30;;;;;;;8.65;5.70;;;;;;;14.15;100.00;101541.94;5075058;28;20033;-85
2023/09/25 00:42:58;;;;;;;7.65;5.18;;;;;;;14.11;100.00;101541.34;5074136;28;20028;-82
2023/09/25 00:45:23;;;;;;;7.85;6.05;;;;;;;14.04;100.00;101542.47;5072797;28;20438;-84
2023/09/25 00:47:50;;;;;;;5.80;5.07;;;;;;;13.99;100.00;101535.31;5073303;28;20473;-84
2023/09/25 00:50:21;;;;;;;8.88;5.65;;;;;;;13.87;100.00;101527.75;5072390;28;20032;-85
2023/09/25 00:52:50;;;;;;;9.60;5.32;;;;;;;13.93;100.00;101543.03;5073846;28;20047;-83
2023/09/25 00:55:16;;;;;;;8.82;5.40;;;;;;;13.92;100.00;101555.81;5074957;28;20032;-84
2023/09/25 00:57:43;;;;;;;10.55;5.28;;;;;;;13.88;100.00;101549.44;5075469;28;20033;-88
2023/09/25 01:00:13;;;;;;;9.10;5.68;;;;;;;13.89;100.00;101547.34;5057591;28;20025;-89
2023/09/25 01:02:39;;;;;;;7.80;5.53;;;;;;;13.86;100.00;101548.31;5072459;28;20047;-84
2023/09/25 01:05:11;;;;;;;7.70;4.95;;;;;;;13.93;100.00;101556.63;5054885;28;20065;-84
2023/09/25 01:07:38;;;;;;;7.53;4.95;;;;;;;13.93;100.00;101565.22;5071537;28;20353;-81
2023/09/25 01:10:04;;;;;;;10.55;5.50;;;;;;;13.97;100.00;101566.66;5071818;28;20028;-83
2023/09/25 01:12:30;;;;;;;6.72;5.25;;;;;;;13.89;100.00;101547.34;5069535;28;20150;-83
2023/09/25 01:14:55;;;;;;;11.10;5.78;;;;;;;13.99;100.00;101564.06;5073392;28;20111;-82
2023/09/25 01:17:20;;;;;;;7.55;5.03;;;;;;;14.05;100.00;101566.28;5071570;28;20024;-82
2023/09/25 01:19:47;;;;;;;11.35;5.88;;;;;;;14.04;100.00;101568.34;5072651;28;20020;-83
2023/09/25 01:22:12;;;;;;;6.50;5.68;;;;;;;14.07;100.00;101573.16;5071491;28;20031;-82
2023/09/25 01:24:38;;;;;;;9.13;5.95;;;;;;;14.09;100.00;101570.56;5072850;28;20032;-82
2023/09/25 01:27:07;;;;;;;12.57;6.10;;;;;;;14.09;100.00;101576.31;5071289;28;20087;-82
2023/09/25 01:29:32;;;;;;;7.82;5.00;;;;;;;14.17;100.00;101576.78;5073308;28;20016;-81
2023/09/25 01:31:58;;;;;;;8.90;5.18;;;;;;;14.19;100.00;101580.72;5073265;28;20616;-82
2023/09/25 01:34:23;;;;;;;7.68;5.03;;;;;;;14.23;100.00;101572.72;5073919;28;20058;-82
2023/09/25 01:36:50;;;;;;;7.85;5.53;;;;;;;14.26;100.00;101576.72;5072074;28;20032;-82
2023/09/25 01:39:17;;;;;;;8.02;5.70;;;;;;;14.28;100.00;101574.94;5073898;28;20029;-82
2023/09/25 01:41:44;;;;;;;6.93;5.40;;;;;;;14.31;100.00;101570.28;5073870;28;20182;-82
2023/09/25 01:44:09;;;;;;;8.43;6.05;;;;;;;14.31;100.00;101562.47;5073760;28;20168;-81
2023/09/25 01:46:37;;;;;;;8.02;6.07;;;;;;;14.30;100.00;101557.19;5072983;28;20044;-81
2023/09/25 01:49:03;;;;;;;5.72;5.13;;;;;;;14.33;100.00;101562.75;5073179;28;20067;-80
2023/09/25 01:51:29;;;;;;;10.57;5.22;;;;;;;14.37;100.00;101556.84;5073562;28;20062;-81
2023/09/25 01:53:55;;;;;;;8.48;5.20;;;;;;;14.38;100.00;101555.53;5073474;28;20099;-82
2023/09/25 01:56:21;;;;;;;16.25;6.60;;;;;;;14.43;100.00;101557.75;5073576;28;20465;-83
2023/09/25 01:58:47;;;;;;;8.77;5.40;;;;;;;14.47;100.00;101548.94;5070901;28;20033;-81
2023/09/25 02:01:14;;;;;;;7.20;5.50;;;;;;;14.51;100.00;101546.69;5073047;28;20474;-82
2023/09/25 02:03:41;;;;;;;8.35;5.95;;;;;;;14.52;100.00;101543.31;5073334;28;20031;-81
2023/09/25 02:06:08;;;;;;;6.85;5.45;;;;;;;14.58;100.00;101541.38;5071886;28;20107;-82
2023/09/25 02:08:35;;;;;;;7.00;5.40;;;;;;;14.62;100.00;101535.44;5073020;28;20095;-81
2023/09/25 02:11:03;;;;;;;7.78;4.95;;;;;;;14.63;100.00;101537.00;5071802;28;20021;-80
2023/09/25 02:13:29;;;;;;;8.68;5.03;;;;;;;14.62;100.00;101533.38;5073059;28;20044;-82
2023/09/25 02:15:56;;;;;;;6.88;5.15;;;;;;;14.63;100.00;101534.94;5071632;28;20086;-81
2023/09/25 02:18:22;;;;;;;6.75;5.45;;;;;;;14.63;100.00;101532.06;5071763;28;20040;-81
2023/09/25 02:20:49;;;;;;;8.85;5.22;;;;;;;14.62;100.00;101524.75;5073100;28;20436;-81
2023/09/25 02:23:15;;;;;;;6.13;4.85;;;;;;;14.63;100.00;101519.75;5071833;28;20021;-81
2023/09/25 02:25:41;;;;;;;9.07;4.80;;;;;;;14.66;100.00;101521.66;5071708;28;20033;-81
2023/09/25 02:28:08;;;;;;;5.95;5.10;;;;;;;14.66;100.00;101518.78;5072640;28;20035;-81
2023/09/25 02:30:34;;;;;;;7.10;5.05;;;;;;;14.57;100.00;101495.81;5038560;28;20047;-80
2023/09/25 02:33:00;;;;;;;6.57;5.18;;;;;;;14.65;100.00;101497.84;5073015;28;20055;-82
2023/09/25 02:35:26;;;;;;;9.07;5.68;;;;;;;14.65;100.00;101509.34;5072950;28;20446;-81
2023/09/25 02:37:53;;;;;;;6.43;4.65;;;;;;;14.62;100.00;101513.22;5072346;28;20052;-81
2023/09/25 02:40:19;;;;;;;8.00;5.22;;;;;;;14.65;100.00;101502.81;5071706;28;20428;-81
2023/09/25 02:42:45;;;;;;;8.20;5.13;;;;;;;14.65;100.00;101499.94;5072823;28;20441;-81
2023/09/25 02:45:11;;;;;;;6.93;5.03;;;;;;;14.65;100.00;101502.81;5054565;28;20119;-80
2023/09/25 02:47:37;;;;;;;6.80;4.85;;;;;;;14.59;100.00;101504.78;5073013;28;20466;-80
2023/09/25 02:50:05;;;;;;;11.07;6.20;;;;;;;14.53;100.00;101492.34;5072960;28;20036;-80
2023/09/25 02:52:31;;;;;;;8.30;5.40;;;;;;;14.48;100.00;101495.91;5072685;28;20032;-81
2023/09/25 02:54:57;;;;;;;8.50;5.60;;;;;;;14.42;100.00;101492.91;5072481;28;20033;-81
2023/09/25 02:57:23;;;;;;;7.88;5.78;;;;;;;14.36;100.00;101492.78;5072693;28;20074;-80
2023/09/25 02:59:50;;;;;;;6.38;5.32;;;;;;;14.26;100.00;101485.50;5057260;28;20065;-80
2023/09/25 03:02:16;;;;;;;7.22;5.18;;;;;;;14.26;100.00;101484.72;5075904;28;20493;-80
2023/09/25 03:04:43;;;;;;;6.43;5.32;;;;;;;14.22;100.00;101484.91;5076632;28;20469;-81
2023/09/25 03:07:10;;;;;;;8.98;5.65;;;;;;;14.26;100.00;101482.63;5075448;28;20036;-81
2023/09/25 03:09:36;;;;;;;9.55;5.35;;;;;;;14.26;100.00;101484.72;5076726;28;20078;-81
2023/09/25 03:12:04;;;;;;;8.32;5.55;;;;;;;14.28;100.00;101482.16;5075273;28;20446;-81
2023/09/25 03:14:29;;;;;;;9.18;5.60;;;;;;;14.29;100.00;101483.72;5076359;28;20029;-80
2023/09/25 03:16:55;;;;;;;10.38;5.38;;;;;;;14.25;100.00;101465.84;5076526;28;20047;-82
2023/09/25 03:19:22;;;;;;;7.65;5.35;;;;;;;14.30;100.00;101473.81;5076475;28;20499;-81
2023/09/25 03:21:47;;;;;;;14.63;5.50;;;;;;;14.34;100.00;101475.22;5075227;28;20033;-81
2023/09/25 03:24:14;;;;;;;8.73;5.43;;;;;;;14.35;100.00;101476.81;5076641;28;20024;-82
2023/09/25 03:26:41;;;;;;;9.88;5.53;;;;;;;14.37;100.00;101477.13;5075621;28;20454;-80
2023/09/25 03:29:07;;;;;;;6.68;5.05;;;;;;;14.40;100.00;101479.00;5076546;28;20029;-80
2023/09/25 03:31:33;;;;;;;8.48;5.15;;;;;;;14.39;100.00;101468.78;5076797;28;20067;-80
2023/09/25 03:33:59;;;;;;;7.93;5.60;;;;;;;14.40;100.00;101473.25;5075426;28;20056;-81
2023/09/25 03:36:24;;;;;;;11.30;6.07;;;;;;;14.48;100.00;101485.16;5075063;28;20433;-81
2023/09/25 03:38:50;;;;;;;8.15;5.47;;;;;;;14.51;100.00;101484.19;5074825;28;20049;-80
2023/09/25 03:41:15;;;;;;;6.50;4.95;;;;;;;14.54;100.00;101479.53;5073500;28;20040;-81
2023/09/25 03:43:43;;;;;;;10.23;6.05;;;;;;;14.62;100.00;101483.66;5076468;28;20032;-80
2023/09/25 03:46:08;;;;;;;5.82;4.78;;;;;;;14.67;100.00;101477.22;5076258;28;20048;-81
2023/09/25 03:48:35;;;;;;;8.57;5.60;;;;;;;14.69;100.00;101484.06;5075944;28;20047;-81
2023/09/25 03:51:01;;;;;;;6.57;5.70;;;;;;;14.72;100.00;101488.06;5073496;28;20036;-81
2023/09/25 03:53:27;;;;;;;7.35;5.93;;;;;;;14.77;100.00;101487.38;5074657;28;20373;-81
2023/09/25 03:55:54;;;;;;;10.73;5.82;;;;;;;14.75;100.00;101484.97;5074400;28;20037;-81
2023/09/25 03:58:20;;;;;;;7.38;5.03;;;;;;;14.83;100.00;101488.25;5074393;28;20111;-82
2023/09/25 04:00:47;;;;;;;7.28;5.18;;;;;;;14.91;100.00;101495.22;5076599;28;20043;-81
2023/09/25 04:03:13;;;;;;;8.40;5.60;;;;;;;14.96;100.00;101497.41;5076518;28;20024;-81
2023/09/25 04:05:40;;;;;;;11.70;5.63;;;;;;;14.98;100.00;101506.34;5074940;28;20020;-79
2023/09/25 04:08:06;;;;;;;6.68;5.13;;;;;;;14.98;100.00;101499.78;5075872;28;20020;-80
2023/09/25 04:10:32;;;;;;;8.50;5.20;;;;;;;15.04;100.00;101503.56;5074875;28;20031;-82
2023/09/25 04:12:59;;;;;;;6.93;5.40;;;;;;;15.02;100.00;101501.16;5074082;28;20119;-82
2023/09/25 04:15:25;;;;;;;7.88;5.50;;;;;;;15.01;100.00;101508.25;5074008;28;20081;-82
2023/09/25 04:17:52;;;;;;;6.55;4.93;;;;;;;15.03;100.00;101507.72;5075398;28;20063;-80
2023/09/25 04:20:26;;;;;;;12.18;5.45;;;;;;;15.04;100.00;101512.19;5095359;28;20051;-82
2023/09/25 04:22:58;;;;;;;8.13;5.82;;;;;;;15.04;100.00;101507.25;5093550;28;20366;-82
2023/09/25 04:25:27;;;;;;;8.38;5.40;;;;;;;15.06;100.00;101506.75;5094519;28;20107;-80
2023/09/25 04:27:55;;;;;;;9.20;5.18;;;;;;;15.09;100.00;101511.50;5093130;28;20016;-80
2023/09/25 04:30:21;;;;;;;10.43;5.50;;;;;;;15.11;100.00;101512.63;5094434;28;20035;-81
2023/09/25 04:32:49;;;;;;;7.63;5.25;;;;;;;15.14;100.00;101513.69;5094157;28;20064;-81
2023/09/25 04:35:18;;;;;;;7.05;5.68;;;;;;;15.13;100.00;101517.88;5091379;28;20039;-81
2023/09/25 04:37:47;;;;;;;8.30;5.00;;;;;;;15.11;100.00;101511.81;5091661;28;20066;-80
2023/09/25 04:40:31;;;;;;;6.28;5.35;;;;;;;15.11;100.00;101517.56;5092303;28;20119;-80
2023/09/25 04:43:00;;;;;;;7.47;5.03;;;;;;;15.11;100.00;101520.47;5094292;28;20028;-83
2023/09/25 04:45:40;;;;;;;6.90;5.60;;;;;;;15.05;100.00;101510.91;5092636;28;20070;-83
2023/09/25 04:48:06;;;;;;;7.20;5.60;;;;;;;15.02;100.00;101515.56;5093610;28;20461;-83
2023/09/25 04:50:32;;;;;;;6.65;5.47;;;;;;;15.04;100.00;101527.38;5095275;28;20028;-81
2023/09/25 04:52:59;;;;;;;7.57;5.57;;;;;;;14.99;100.00;101518.66;5092647;28;20038;-82
2023/09/25 04:55:26;;;;;;;8.52;5.72;;;;;;;15.06;100.00;101524.81;5098742;28;20081;-84
2023/09/25 04:57:51;;;;;;;8.32;5.63;;;;;;;15.04;100.00;101509.31;5097815;28;20032;-82
2023/09/25 05:00:21;;;;;;;6.97;5.45;;;;;;;15.03;100.00;101508.53;5098233;28;20157;-81
2023/09/25 05:02:49;;;;;;;11.07;5.82;;;;;;;15.10;100.00;101518.88;5096588;28;20426;-82
2023/09/25 05:05:16;;;;;;;10.57;5.82;;;;;;;15.08;100.00;101515.66;5078215;28;20032;-81
2023/09/25 05:07:47;;;;;;;7.80;5.28;;;;;;;15.09;100.00;101515.19;5077839;28;20032;-85
2023/09/25 05:10:16;;;;;;;7.37;5.37;;;;;;;15.13;100.00;101520.75;5088878;28;20066;-85
2023/09/25 05:12:43;;;;;;;12.00;5.60;;;;;;;15.16;100.00;101517.69;5092521;28;20047;-84
2023/09/25 05:15:14;;;;;;;10.20;5.05;;;;;;;15.17;100.00;101513.50;5095842;28;20100;-85
2023/09/25 05:17:41;;;;;;;8.57;5.78;;;;;;;15.17;100.00;101516.38;5094504;28;20427;-85
2023/09/25 05:20:10;;;;;;;13.30;6.38;;;;;;;15.21;100.00;101510.44;5094679;28;20032;-84
2023/09/25 05:22:42;;;;;;;8.32;5.85;;;;;;;15.24;100.00;101518.88;5077825;28;20477;-86
2023/09/25 05:25:11;;;;;;;12.85;6.18;;;;;;;15.26;100.00;101518.38;5077649;28;20039;-88
2023/09/25 05:27:39;;;;;;;11.25;6.00;;;;;;;15.28;100.00;101527.31;5093107;28;20165;-86
2023/09/25 05:30:09;;;;;;;10.90;6.28;;;;;;;15.25;100.00;101511.81;5077566;28;20035;-84
2023/09/25 05:32:41;;;;;;;10.38;5.78;;;;;;;15.22;100.00;101504.16;5093556;28;20040;-82
2023/09/25 05:35:08;;;;;;;12.00;5.97;;;;;;;15.32;100.00;101525.00;5094576;28;20031;-79
2023/09/25 05:37:33;;;;;;;13.88;6.30;;;;;;;15.32;100.00;101519.25;5094566;28;20558;-81
2023/09/25 05:40:05;;;;;;;10.73;6.38;;;;;;;15.37;100.00;101512.00;5099571;28;20028;-80
2023/09/25 05:42:45;;;;;;;10.40;6.18;;;;;;;15.41;100.00;101509.75;5099781;28;20031;-85
2023/09/25 05:45:26;;;;;;;10.90;6.68;;;;;;;15.45;100.00;101504.56;5093263;28;20024;-84
2023/09/25 05:47:53;;;;;;;11.40;5.82;;;;;;;15.45;100.00;101505.38;5096155;28;20112;-83
2023/09/25 05:50:19;;;;;;;9.80;5.72;;;;;;;15.48;100.00;101504.34;5093585;28;20070;-83
2023/09/25 05:52:47;;;;;;;8.98;6.43;;;;;;;15.53;100.00;101499.97;5094134;28;20499;-86
2023/09/25 05:55:12;;;;;;;14.77;7.13;;;;;;;15.59;100.00;101495.94;5097023;28;20026;-83
2023/09/25 05:57:38;;;;;;;13.82;6.05;;;;;;;15.66;100.00;101498.38;5094851;28;20084;-83
2023/09/25 06:00:12;;;;;;;12.63;5.93;;;;;;;15.78;100.00;101498.56;5099869;28;20032;-85
2023/09/25 06:02:40;;;;;;;11.82;6.43;;;;;;;15.90;100.00;101497.47;5097507;28;20063;-81
2023/09/25 06:05:06;;;;;;;11.05;6.38;;;;;;;16.00;100.00;101498.94;5096036;28;20027;-81
2023/09/25 06:07:33;;;;;;;11.68;6.20;;;;;;;16.16;100.00;101491.78;5096697;28;20020;-83
2023/09/25 06:10:01;;;;;;;10.27;6.00;;;;;;;16.29;100.00;101489.38;5096094;28;20023;-82
2023/09/25 06:12:27;;;;;;;13.77;5.97;;;;;;;16.48;100.00;101490.66;5104734;28;20028;-83
2023/09/25 06:14:54;;;;;;;7.43;5.60;;;;;;;16.83;100.00;101482.72;5105405;28;20050;-83
2023/09/25 06:17:19;;;;;;;12.82;6.20;;;;;;;17.33;100.00;101486.09;5099903;28;20075;-81
2023/09/25 06:19:49;;;;;;;6.35;5.47;;;;;;;17.61;100.00;101485.56;5101041;28;20039;-82
2023/09/25 06:22:15;;;;;;;8.77;5.60;;;;;;;17.88;100.00;101478.41;5106208;28;20074;-83
2023/09/25 06:24:41;;;;;;;8.00;5.60;;;;;;;18.06;100.00;101473.00;5103399;28;20032;-84
2023/09/25 06:27:10;;;;;;;8.90;5.25;;;;;;;18.26;100.00;101483.63;5101468;28;20031;-85
2023/09/25 06:29:36;;;;;;;5.95;4.93;;;;;;;18.51;100.00;101479.81;5102916;28;20016;-84
2023/09/25 06:32:03;;;;;;;8.93;4.82;;;;;;;18.77;100.00;101490.44;5102275;28;20020;-84
2023/09/25 06:34:30;;;;;;;7.07;5.38;;;;;;;18.98;100.00;101491.81;5102267;28;20024;-84
2023/09/25 06:36:56;;;;;;;8.15;5.57;;;;;;;19.45;100.00;101499.56;5101792;28;20095;-84
2023/09/25 06:39:29;;;;;;;9.48;5.90;;;;;;;19.66;100.00;101499.31;5097392;28;20032;-86
2023/09/25 06:42:00;;;;;;;7.55;5.75;;;;;;;19.99;100.00;101490.56;5097766;28;20081;-87
2023/09/25 06:44:27;;;;;;;10.50;5.28;;;;;;;20.37;100.00;101486.78;5101805;28;20031;-89
2023/09/25 06:46:55;;;;;;;6.88;4.30;;;;;;;20.51;100.00;101479.06;5102777;28;20031;-87
2023/09/25 06:49:22;;;;;;;6.78;4.80;;;;;;;20.67;100.00;101483.22;5100869;28;20023;-84
2023/09/25 06:51:48;;;;;;;8.13;4.85;;;;;;;20.68;100.00;101493.50;5098384;28;20051;-89
2023/09/25 06:54:15;;;;;;;6.60;4.60;;;;;;;20.44;100.00;101497.06;5102887;28;20139;-86
2023/09/25 06:56:41;;;;;;;6.85;4.30;;;;;;;20.17;100.00;101492.91;5102460;28;20055;-87
2023/09/25 06:59:07;;;;;;;9.32;4.38;;;;;;;20.03;100.00;101493.19;5102068;28;20024;-88
2023/09/25 07:01:33;;;;;;;5.28;4.63;;;;;;;19.91;100.00;101501.09;5084129;28;20088;-85
2023/09/25 07:03:59;;;;;;;7.95;4.43;;;;;;;19.84;100.00;101496.63;5099649;28;20108;-83
2023/09/25 07:06:25;;;;;;;10.25;4.97;;;;;;;19.87;100.00;101501.38;5098646;28;20027;-86
2023/09/25 07:08:51;;;;;;;8.50;4.35;;;;;;;19.96;100.00;101509.03;5095131;28;20036;-85
2023/09/25 07:11:18;;;;;;;9.10;4.28;;;;;;;20.10;100.00;101496.38;5099078;28;20048;-88
2023/09/25 07:13:44;;;;;;;8.20;4.70;;;;;;;20.27;100.00;101490.50;5098400;28;20114;-88
2023/09/25 07:16:10;;;;;;;8.20;4.45;;;;;;;20.49;100.00;101496.25;5102851;28;20063;-86
2023/09/25 07:18:39;;;;;;;5.20;4.07;;;;;;;20.75;100.00;101501.69;5101851;28;20031;-84
2023/09/25 07:21:09;;;;;;;8.43;4.32;;;;;;;21.19;100.00;101507.22;5094041;28;20385;-86
2023/09/25 07:23:37;;;;;;;5.60;4.53;;;;;;;21.62;100.00;101498.75;5100332;28;20036;-88
2023/09/25 07:26:09;;;;;;;5.85;4.40;;;;;;;21.93;100.00;101500.28;5101180;28;20044;-88
2023/09/25 07:28:36;;;;;;;4.93;4.03;;;;;;;22.31;100.00;101504.19;5098407;28;20032;-85
2023/09/25 07:31:02;;;;;;;5.78;4.43;;;;;;;22.38;100.00;101502.75;5094587;28;20089;-84
2023/09/25 07:33:31;;;;;;;4.32;3.92;;;;;;;22.41;100.00;101495.84;5100501;28;20120;-85
2023/09/25 07:35:58;;;;;;;8.80;4.28;;;;;;;22.62;100.00;101496.91;5093460;28;20036;-85
2023/09/25 07:38:24;;;;;;;7.43;4.32;;;;;;;23.02;100.00;101491.34;5101904;28;20143;-82
2023/09/25 07:40:50;;;;;;;5.70;3.92;;;;;;;23.23;100.00;101499.00;5093055;28;20055;-80
2023/09/25 07:43:20;;;;;;;6.47;4.10;;;;;;;23.45;100.00;101492.03;5096382;28;20352;-80
2023/09/25 07:45:48;;;;;;;8.50;4.30;;;;;;;23.59;100.00;101499.50;5097173;28;20030;-82
2023/09/25 07:48:16;;;;;;;7.60;4.22;;;;;;;23.60;100.00;101504.00;5100284;28;20028;-86
2023/09/25 07:50:45;;;;;;;4.00;3.47;;;;;;;23.65;100.00;101493.56;5099901;28;20020;-85
2023/09/25 07:53:12;;;;;;;5.75;3.70;;;;;;;23.90;100.00;101492.06;5097533;28;20016;-84
2023/09/25 07:55:52;;;;;;;5.55;4.38;;;;;;;24.26;100.00;101483.69;5099252;28;20031;-84
2023/09/25 07:58:19;;;;;;;6.47;3.97;;;;;;;24.62;100.00;101486.94;5099430;28;20027;-82
2023/09/25 08:00:51;;;;;;;4.70;4.10;;;;;;;24.92;100.00;101493.22;5100140;28;20103;-84
2023/09/25 08:03:22;;;;;;;5.57;3.50;;;;;;;25.01;100.00;101478.09;5081690;28;20039;-82
2023/09/25 08:05:48;;;;;;;7.32;3.92;;;;;;;25.28;100.00;101481.75;5103643;28;20020;-86
2023/09/25 08:08:13;;;;;;;5.20;3.92;;;;;;;25.26;100.00;101469.81;5104016;28;20115;-86
2023/09/25 08:10:47;;;;;;;6.22;4.32;;;;;;;25.43;100.00;101478.94;5100079;28;20147;-84
2023/09/25 08:13:15;;;;;;;7.95;4.28;;;;;;;25.49;100.00;101488.41;5099261;28;20043;-83
2023/09/25 08:15:41;;;;;;;6.00;4.00;;;;;;;25.39;100.00;101463.09;5098091;28;20031;-86
2023/09/25 08:18:06;;;;;;;9.02;3.90;;;;;;;25.49;100.00;101479.63;5098435;28;20036;-84
2023/09/25 08:20:32;;;;;;;6.43;3.90;;;;;;;25.56;100.00;101472.28;5098419;28;20032;-81
2023/09/25 08:22:58;;;;;;;6.47;3.33;;;;;;;25.64;100.00;101466.47;5100899;28;20119;-84
2023/09/25 08:25:25;;;;;;;7.95;4.20;;;;;;;25.84;100.00;101472.31;5100786;28;20020;-86
2023/09/25 08:27:54;;;;;;;6.20;3.90;;;;;;;25.84;100.00;101477.41;5096343;28;20466;-85
2023/09/25 08:30:21;;;;;;;6.97;3.97;;;;;;;25.88;100.00;101466.88;5098691;28;20036;-83
2023/09/25 08:32:48;;;;;;;9.10;4.20;;;;;;;25.99;100.00;101451.16;5100141;28;20129;-84
2023/09/25 08:35:14;;;;;;;7.00;4.25;;;;;;;26.01;100.00;101439.66;5098249;28;20376;-79
2023/09/25 08:37:42;;;;;;;6.40;3.80;;;;;;;25.93;100.00;101453.44;5096307;28;20044;-83
2023/09/25 08:40:09;;;;;;;3.92;3.50;;;;;;;25.74;100.00;101464.63;5093773;28;20378;-84
2023/09/25 08:42:34;;;;;;;3.78;3.47;;;;;;;25.69;100.00;101454.63;5099237;28;20109;-82
2023/09/25 08:45:02;;;;;;;7.25;3.70;;;;;;;25.54;100.00;101462.47;5098724;28;20468;-81
2023/09/25 08:47:34;;;;;;;5.13;3.47;;;;;;;25.51;100.00;101454.84;5096154;28;20119;-82
2023/09/25 08:50:02;;;;;;;6.68;3.70;;;;;;;25.46;100.00;101450.69;5095501;28;20027;-82
2023/09/25 08:52:42;;;;;;;5.47;3.60;;;;;;;25.47;100.00;101455.19;5093817;28;20044;-83
2023/09/25 08:55:09;;;;;;;7.05;3.78;;;;;;;25.57;100.00;101450.44;5093982;28;20472;-82
2023/09/25 08:57:36;;;;;;;8.15;3.80;;;;;;;25.66;100.00;101455.78;5098718;28;20130;-80
2023/09/25 09:00:14;;;;;;;8.98;3.03;;;;;;;25.65;100.00;101448.34;5095123;28;20064;-81
2023/09/25 09:02:41;;;;;;;11.95;3.65;;;;;;;25.61;100.00;101447.13;5095790;28;20059;-79
2023/09/25 09:05:11;;;;;;;3.65;3.22;;;;;;;25.57;100.00;101452.56;5095966;28;20081;-80
2023/09/25 09:08:00;;;;;;;4.18;3.13;;;;;;;25.52;100.00;101448.44;5094856;28;20461;-80
2023/09/25 09:10:35;;;;;;;4.78;3.30;;;;;;;25.43;100.00;101448.91;5081969;28;20092;-81
2023/09/25 09:13:04;;;;;;;4.60;3.35;;;;;;;25.30;100.00;101440.19;5098740;28;20044;-84
2023/09/25 09:15:31;;;;;;;7.85;3.67;;;;;;;25.22;100.00;101445.97;5091829;28;20036;-83
2023/09/25 09:17:58;;;;;;;4.35;3.95;;;;;;;24.96;100.00;101420.53;5102915;28;20028;-86
2023/09/25 09:20:48;;;;;;;6.10;3.13;;;;;;;24.83;100.00;101446.06;5103232;28;20030;-82
2023/09/25 09:23:21;;;;;;;4.25;3.20;;;;;;;24.76;100.00;101443.84;5105311;28;20129;-83
2023/09/25 09:25:48;;;;;;;8.48;3.30;;;;;;;24.76;100.00;101444.63;5085758;28;20057;-83
2023/09/25 09:28:15;;;;;;;11.05;4.32;;;;;;;24.74;100.00;101435.63;5103661;28;20052;-84
2023/09/25 09:30:41;;;;;;;5.68;3.45;;;;;;;24.78;100.00;101436.09;5097994;28;20036;-79
2023/09/25 09:33:09;;;;;;;5.40;3.38;;;;;;;24.82;100.00;101432.81;5102193;28;20066;-82
2023/09/25 09:35:37;;;;;;;8.98;3.28;;;;;;;24.99;100.00;101433.22;5103248;28;20075;-83
2023/09/25 09:38:03;;;;;;;4.85;3.35;;;;;;;25.02;100.00;101424.09;5100493;28;20177;-82
2023/09/25 09:40:30;;;;;;;2.60;2.40;;;;;;;25.18;100.00;101427.97;5080085;28;20161;-84
2023/09/25 09:42:58;;;;;;;7.65;2.80;;;;;;;25.26;100.00;101430.97;5079975;28;20165;-80
2023/09/25 09:45:28;;;;;;;9.48;3.50;;;;;;;25.33;100.00;101428.09;5101099;28;20028;-80
2023/09/25 09:47:55;;;;;;;4.73;2.97;;;;;;;25.43;100.00;101434.28;5099731;28;20054;-81
2023/09/25 09:50:23;;;;;;;5.32;2.90;;;;;;;25.44;100.00;101421.19;5095715;28;20626;-82
2023/09/25 09:52:49;;;;;;;6.70;2.78;;;;;;;25.48;100.00;101424.56;5080183;28;20119;-82
2023/09/25 09:55:16;;;;;;;4.50;2.75;;;;;;;25.40;100.00;101432.47;5113980;28;20096;-90
2023/09/25 09:57:43;;;;;;;7.43;3.05;;;;;;;25.22;100.00;101413.78;5123028;27;20023;-86
2023/09/25 10:00:12;;;;;;;4.47;3.05;;;;;;;25.22;100.00;101419.63;5100495;28;20124;-84
2023/09/25 10:02:39;;;;;;;2.97;2.67;;;;;;;25.19;100.00;101431.66;5101258;27;20076;-84
2023/09/25 10:05:05;;;;;;;3.25;2.65;;;;;;;25.12;100.00;101432.38;5106448;28;20044;-83
2023/09/25 10:07:32;;;;;;;3.58;3.00;;;;;;;25.07;100.00;101422.41;5115157;28;20794;-85
2023/09/25 10:10:07;;;;;;;4.07;2.85;;;;;;;25.24;100.00;101422.75;5106468;28;20024;-84
2023/09/25 10:12:50;;;;;;;5.55;2.58;;;;;;;25.29;100.00;101415.97;5095843;28;20133;-84
2023/09/25 10:15:23;;;;;;;6.47;2.60;;;;;;;25.36;100.00;101414.47;5092372;28;20067;-84
2023/09/25 10:17:48;;;;;;;6.35;2.30;;;;;;;25.53;100.00;101429.50;5075480;28;20457;-84
2023/09/25 10:20:40;;;;;;;3.05;2.15;;;;;;;25.60;100.00;101416.28;5075208;28;20032;-81
2023/09/25 10:23:06;;;;;;;8.00;2.13;;;;;;;25.66;100.00;101422.78;5092908;28;20071;-81
2023/09/25 10:25:48;;;;;;;4.53;1.95;;;;;;;25.63;100.00;101423.94;5093003;28;20071;-81
2023/09/25 10:28:31;;;;;;;9.57;3.13;;;;;;;25.43;100.00;101420.41;5093282;28;20039;-81
2023/09/25 10:31:01;;;;;;;19.95;6.75;;;;;;;25.33;100.00;101416.41;5092841;28;20036;-80
2023/09/25 10:33:36;;;;;;;11.40;3.10;;;;;;;25.17;100.00;101405.91;5092510;28;20074;-84
2023/09/25 10:36:04;;;;;;;11.45;5.28;;;;;;;25.05;100.00;101404.63;5092657;28;20028;-84
2023/09/25 10:38:34;;;;;;;5.47;2.35;;;;;;;25.02;100.00;101426.25;5093751;28;20130;-83
2023/09/25 10:41:06;;;;;;;11.93;4.28;;;;;;;24.91;100.00;101427.28;5113122;28;20023;-85
2023/09/25 10:43:33;;;;;;;14.57;3.00;;;;;;;24.71;100.00;101419.22;5112714;28;20108;-85
2023/09/25 10:46:08;;;;;;;7.10;2.70;;;;;;;24.62;100.00;101417.56;5097226;28;20040;-84
2023/09/25 10:48:33;;;;;;;3.50;2.72;;;;;;;24.48;100.00;101412.31;5113198;28;20100;-83
2023/09/25 10:50:59;;;;;;;9.85;3.00;;;;;;;24.35;100.00;101413.09;5114597;28;20027;-80
2023/09/25 10:53:26;;;;;;;11.02;3.22;;;;;;;24.13;100.00;101410.63;5115385;28;20038;-81
2023/09/25 10:55:52;;;;;;;5.63;2.70;;;;;;;24.10;100.00;101412.53;5112733;28;20142;-81
2023/09/25 10:58:18;;;;;;;9.95;3.08;;;;;;;24.08;100.00;101409.41;5112552;27;20118;-82
2023/09/25 11:00:44;;;;;;;3.22;2.60;;;;;;;24.14;100.00;101409.28;5113457;28;20027;-82
2023/09/25 11:03:10;;;;;;;9.45;2.90;;;;;;;24.26;100.00;101401.09;5111778;27;20040;-80
2023/09/25 11:05:38;;;;;;;7.65;2.95;;;;;;;24.27;100.00;101385.91;5109757;28;20019;-82
2023/09/25 11:08:06;;;;;;;3.65;2.10;;;;;;;24.39;100.00;101395.25;5072750;28;20025;-80
2023/09/25 11:10:35;;;;;;;5.30;2.83;;;;;;;24.37;100.00;101389.94;5054923;28;20117;-82
2023/09/25 11:13:00;;;;;;;3.78;2.50;;;;;;;24.34;100.00;101399.88;5055204;28;20040;-82
2023/09/25 11:15:27;;;;;;;5.78;3.05;;;;;;;24.28;100.00;101396.28;5071695;28;20055;-81
2023/09/25 11:17:56;;;;;;;5.65;2.38;;;;;;;24.28;100.00;101402.13;5072528;28;20032;-81
2023/09/25 11:20:41;;;;;;;6.03;2.60;;;;;;;24.11;100.00;101402.41;5074868;28;20044;-79